Time;durP1;ratioP1;P1;durP2;ratioP2;P2;SDS_P1;SDS_P2;PMS_P1;PMS_P2;Temp;Humidity;BMP_temperature;BMP_pressure;BME280_temperature;BME280_humidity;BME280_pressure;Samples;Min_cycle;Max_cycle;Signal;HPM_P1;HPM_P2
2023/04/04 00:00:01;;;;;;;3.08;1.48;;;2.40;90.10;;;;;;5114944;28;20195;-84
2023/04/04 00:02:30;;;;;;;1.98;1.75;;;2.40;87.40;;;;;;5115219;28;20329;-84
2023/04/04 00:04:58;;;;;;;1.20;1.20;;;2.40;86.00;;;;;;5115147;28;20210;-83
2023/04/04 00:07:29;;;;;;;1.38;1.27;;;2.30;86.90;;;;;;5114458;28;20283;-83
2023/04/04 00:09:57;;;;;;;1.17;1.08;;;2.30;86.50;;;;;;5114553;28;20222;-84
2023/04/04 00:12:30;;;;;;;1.33;1.33;;;2.30;88.00;;;;;;5114808;28;20220;-83
2023/04/04 00:15:01;;;;;;;3.88;1.80;;;2.30;85.80;;;;;;5114849;28;20203;-84
2023/04/04 00:17:30;;;;;;;2.40;1.88;;;2.30;88.00;;;;;;5114094;28;20227;-84
2023/04/04 00:19:59;;;;;;;1.80;1.38;;;2.20;85.10;;;;;;5114906;28;20210;-84
2023/04/04 00:22:27;;;;;;;1.60;1.50;;;2.30;87.90;;;;;;5114528;28;20220;-84
2023/04/04 00:24:58;;;;;;;1.63;1.52;;;2.20;84.90;;;;;;5114293;28;20207;-83
2023/04/04 00:27:30;;;;;;;1.42;1.33;;;2.20;84.70;;;;;;5113675;28;20291;-84
2023/04/04 00:30:02;;;;;;;1.60;1.50;;;2.20;87.00;;;;;;5114703;28;20227;-84
2023/04/04 00:32:32;;;;;;;2.33;1.88;;;2.20;86.70;;;;;;5114076;28;20310;-83
2023/04/04 00:35:04;;;;;;;1.70;1.45;;;2.20;86.00;;;;;;5114214;28;20206;-84
2023/04/04 00:37:35;;;;;;;2.40;2.05;;;2.20;87.10;;;;;;5113763;28;20207;-84
2023/04/04 00:40:04;;;;;;;1.42;1.33;;;2.20;87.20;;;;;;5114038;28;20204;-84
2023/04/04 00:42:45;;;;;;;;;;;;;;;;;;;;;
2023/04/04 00:45:15;;;;;;;1.45;1.35;;;2.10;87.80;;;;;;5114249;28;20204;-84
2023/04/04 00:47:47;;;;;;;1.75;1.65;;;2.10;88.20;;;;;;5112307;28;20208;-84
2023/04/04 00:50:16;;;;;;;1.73;1.63;;;2.10;89.40;;;;;;5113835;28;20223;-84
2023/04/04 00:52:45;;;;;;;1.98;1.80;;;2.10;89.80;;;;;;5113963;28;20219;-83
2023/04/04 00:55:16;;;;;;;1.52;1.42;;;2.10;90.50;;;;;;5114035;28;20275;-84
2023/04/04 00:57:45;;;;;;;2.30;2.10;;;2.10;90.70;;;;;;5113381;28;20211;-83
2023/04/04 01:00:16;;;;;;;1.52;1.42;;;2.10;90.40;;;;;;5113353;28;20195;-83
2023/04/04 01:02:46;;;;;;;1.67;1.58;;;2.00;90.80;;;;;;5113842;28;20206;-83
2023/04/04 01:05:15;;;;;;;2.33;1.63;;;2.00;91.50;;;;;;5113511;28;20273;-83
2023/04/04 01:07:44;;;;;;;1.48;1.38;;;2.00;90.90;;;;;;5113329;28;20226;-83
2023/04/04 01:10:15;;;;;;;1.50;1.40;;;2.00;91.00;;;;;;5113287;28;20224;-83
2023/04/04 01:12:46;;;;;;;1.67;1.58;;;2.00;91.10;;;;;;5113836;28;20203;-84
2023/04/04 01:15:16;;;;;;;1.50;1.40;;;2.00;90.70;;;;;;5113594;28;20290;-83
2023/04/04 01:17:45;;;;;;;1.20;1.13;;;2.00;90.40;;;;;;5113327;28;20211;-83
2023/04/04 01:20:16;;;;;;;1.42;1.33;;;2.00;91.20;;;;;;5113488;28;20196;-84
2023/04/04 01:22:47;;;;;;;2.65;1.67;;;2.00;90.50;;;;;;5113491;28;20199;-84
2023/04/04 01:25:20;;;;;;;1.80;1.70;;;1.90;90.70;;;;;;5113430;28;20305;-83
2023/04/04 01:27:50;;;;;;;3.75;2.28;;;1.90;90.90;;;;;;5113036;28;20208;-83
2023/04/04 01:30:21;;;;;;;1.63;1.52;;;1.90;90.20;;;;;;5112883;28;20227;-83
2023/04/04 01:32:55;;;;;;;1.40;1.30;;;1.90;90.30;;;;;;5113134;28;20203;-83
2023/04/04 01:35:33;;;;;;;3.60;2.20;;;1.90;91.60;;;;;;5113920;28;20258;-84
2023/04/04 01:38:19;;;;;;;1.25;1.15;;;1.90;90.70;;;;;;5112300;28;20214;-83
2023/04/04 01:40:51;;;;;;;1.40;1.30;;;1.90;90.60;;;;;;5112976;28;20227;-83
2023/04/04 01:43:22;;;;;;;2.58;1.73;;;1.90;90.00;;;;;;5113182;28;20195;-83
2023/04/04 01:45:54;;;;;;;2.28;1.73;;;1.80;91.00;;;;;;5112907;28;20214;-83
2023/04/04 01:48:26;;;;;;;1.08;1.05;;;1.90;90.30;;;;;;5112624;28;20218;-83
2023/04/04 01:50:57;;;;;;;1.65;1.30;;;1.80;90.20;;;;;;5112977;28;20230;-84
2023/04/04 01:53:30;;;;;;;1.45;1.35;;;1.90;90.40;;;;;;5113482;28;20207;-83
2023/04/04 01:55:58;;;;;;;1.85;1.75;;;1.90;90.30;;;;;;5112963;28;20203;-83
2023/04/04 01:58:29;;;;;;;3.30;1.90;;;2.00;90.60;;;;;;5112385;28;20278;-83
2023/04/04 02:00:59;;;;;;;1.98;1.77;;;2.10;91.20;;;;;;5113207;28;20231;-83
2023/04/04 02:03:29;;;;;;;1.20;1.20;;;2.10;90.30;;;;;;5113414;28;20282;-83
2023/04/04 02:05:59;;;;;;;1.30;1.20;;;2.10;91.00;;;;;;5113414;28;20192;-84
2023/04/04 02:08:38;;;;;;;1.40;1.30;;;2.20;90.60;;;;;;5112131;28;20199;-83
2023/04/04 02:11:06;;;;;;;2.25;1.73;;;2.10;89.30;;;;;;5112593;28;20234;-83
2023/04/04 02:13:43;;;;;;;3.80;1.88;;;2.20;89.70;;;;;;5113103;28;20200;-83
2023/04/04 02:16:12;;;;;;;1.73;1.63;;;2.10;90.00;;;;;;5113170;28;20276;-83
2023/04/04 02:18:44;;;;;;;2.80;1.90;;;2.10;90.40;;;;;;5112428;28;20223;-84
2023/04/04 02:21:12;;;;;;;2.03;1.55;;;2.00;89.60;;;;;;5112909;28;20219;-84
2023/04/04 02:23:43;;;;;;;1.77;1.60;;;2.00;90.60;;;;;;5112406;28;20212;-84
2023/04/04 02:26:13;;;;;;;1.30;1.20;;;2.00;90.00;;;;;;5112683;28;20206;-83
2023/04/04 02:28:43;;;;;;;1.65;1.55;;;1.90;90.30;;;;;;5112529;28;20215;-83
2023/04/04 02:31:14;;;;;;;5.60;2.42;;;1.90;91.30;;;;;;5112662;28;20230;-83
2023/04/04 02:33:45;;;;;;;1.40;1.30;;;1.90;91.30;;;;;;5112426;28;20261;-84
2023/04/04 02:36:13;;;;;;;1.77;1.67;;;1.80;91.30;;;;;;5112597;28;20249;-85
2023/04/04 02:38:43;;;;;;;1.45;1.35;;;1.80;91.10;;;;;;5112038;28;20204;-83
2023/04/04 02:41:12;;;;;;;3.70;1.80;;;1.80;91.20;;;;;;5112385;28;20228;-83
2023/04/04 02:43:40;;;;;;;1.27;1.23;;;1.70;92.30;;;;;;5112808;28;20204;-83
2023/04/04 02:46:11;;;;;;;1.63;1.52;;;1.70;91.70;;;;;;5112498;28;20212;-84
2023/04/04 02:48:50;;;;;;;1.63;1.52;;;1.60;92.00;;;;;;5111292;28;20206;-83
2023/04/04 02:51:19;;;;;;;2.25;1.98;;;1.60;93.00;;;;;;5115906;28;20231;-83
2023/04/04 02:53:48;;;;;;;2.05;1.80;;;1.60;92.40;;;;;;5116273;28;20200;-83
2023/04/04 02:56:18;;;;;;;1.55;1.45;;;1.60;92.90;;;;;;5116381;28;20287;-83
2023/04/04 02:58:49;;;;;;;2.67;2.00;;;1.60;93.00;;;;;;5115609;28;20210;-83
2023/04/04 03:01:23;;;;;;;1.50;1.40;;;1.60;92.90;;;;;;5116132;28;20226;-84
2023/04/04 03:03:54;;;;;;;2.60;1.85;;;1.50;93.90;;;;;;5115982;28;20238;-84
2023/04/04 03:06:23;;;;;;;2.25;1.85;;;1.50;93.00;;;;;;5116125;28;20292;-83
2023/04/04 03:08:51;;;;;;;1.63;1.50;;;1.50;93.80;;;;;;5115665;28;20204;-84
2023/04/04 03:11:22;;;;;;;1.70;1.60;;;1.40;93.70;;;;;;5115741;28;20226;-83
2023/04/04 03:13:51;;;;;;;1.15;1.10;;;1.50;94.40;;;;;;5115970;28;20210;-84
2023/04/04 03:16:24;;;;;;;1.90;1.80;;;1.40;95.20;;;;;;5115668;28;20208;-84
2023/04/04 03:18:56;;;;;;;1.98;1.88;;;1.40;94.50;;;;;;5115817;28;20289;-84
2023/04/04 03:21:27;;;;;;;1.77;1.67;;;1.40;94.90;;;;;;5115700;28;20236;-84
2023/04/04 03:23:56;;;;;;;2.45;1.92;;;1.30;94.10;;;;;;5115919;28;20224;-84
2023/04/04 03:26:28;;;;;;;1.77;1.67;;;1.30;94.20;;;;;;5115869;28;20249;-84
2023/04/04 03:28:57;;;;;;;1.80;1.42;;;1.30;94.40;;;;;;5115120;28;20225;-83
2023/04/04 03:31:27;;;;;;;1.60;1.50;;;1.30;94.80;;;;;;5115613;28;20279;-84
2023/04/04 03:33:57;;;;;;;2.25;2.05;;;1.20;95.50;;;;;;5115613;28;20204;-83
2023/04/04 03:36:27;;;;;;;1.48;1.38;;;1.20;94.80;;;;;;5115879;28;20246;-84
2023/04/04 03:38:56;;;;;;;1.45;1.35;;;1.20;95.40;;;;;;5115501;28;20217;-84
2023/04/04 03:41:25;;;;;;;2.20;2.00;;;1.20;95.00;;;;;;5115201;28;20239;-84
2023/04/04 03:43:56;;;;;;;1.83;1.70;;;1.20;98.20;;;;;;5115312;28;20208;-84
2023/04/04 03:46:28;;;;;;;1.60;1.50;;;1.20;95.50;;;;;;5115370;28;20199;-84
2023/04/04 03:48:57;;;;;;;1.73;1.63;;;1.10;95.20;;;;;;5114612;28;20203;-84
2023/04/04 03:51:27;;;;;;;4.55;2.13;;;1.10;96.40;;;;;;5115337;28;20230;-84
2023/04/04 03:54:01;;;;;;;1.52;1.42;;;1.10;95.60;;;;;;5114655;28;20196;-84
2023/04/04 03:56:31;;;;;;;1.35;1.25;;;1.10;95.80;;;;;;5115055;28;20208;-84
2023/04/04 03:59:00;;;;;;;1.80;1.70;;;1.10;97.00;;;;;;5115102;28;20203;-84
2023/04/04 04:01:32;;;;;;;2.20;1.95;;;1.10;95.70;;;;;;5114032;28;20244;-84
2023/04/04 04:04:01;;;;;;;2.00;1.67;;;1.10;95.80;;;;;;5114910;28;20219;-84
2023/04/04 04:06:30;;;;;;;1.75;1.65;;;1.10;96.40;;;;;;5115131;28;20204;-84
2023/04/04 04:09:00;;;;;;;1.48;1.35;;;1.10;96.80;;;;;;5114640;28;20208;-84
2023/04/04 04:11:28;;;;;;;1.70;1.60;;;1.10;96.80;;;;;;5114408;28;20224;-84
2023/04/04 04:13:57;;;;;;;2.50;1.92;;;1.10;98.00;;;;;;5114831;28;20203;-84
2023/04/04 04:16:27;;;;;;;1.70;1.33;;;1.10;96.60;;;;;;5114800;28;20288;-84
2023/04/04 04:19:01;;;;;;;1.73;1.63;;;1.00;96.20;;;;;;5114394;28;20210;-84
2023/04/04 04:21:31;;;;;;;1.70;1.60;;;1.00;96.50;;;;;;5114806;28;20216;-84
2023/04/04 04:24:01;;;;;;;1.58;1.48;;;1.10;96.10;;;;;;5114704;28;20207;-83
2023/04/04 04:26:33;;;;;;;2.13;1.92;;;1.10;95.70;;;;;;5113966;28;20222;-84
2023/04/04 04:29:03;;;;;;;1.92;1.70;;;1.10;95.80;;;;;;5114093;28;20318;-84
2023/04/04 04:31:32;;;;;;;1.85;1.73;;;1.00;96.10;;;;;;5114166;28;20235;-84
2023/04/04 04:34:06;;;;;;;1.42;1.33;;;1.00;96.20;;;;;;5114174;28;20196;-84
2023/04/04 04:36:37;;;;;;;1.67;1.57;;;1.00;96.20;;;;;;5114512;28;20204;-84
2023/04/04 04:39:05;;;;;;;1.58;1.48;;;1.00;95.60;;;;;;5113915;28;20282;-84
2023/04/04 04:41:37;;;;;;;1.48;1.35;;;1.00;96.20;;;;;;5114649;28;20242;-84
2023/04/04 04:44:08;;;;;;;1.83;1.40;;;1.00;95.90;;;;;;5114262;28;20203;-84
2023/04/04 04:46:40;;;;;;;1.55;1.40;;;1.00;95.70;;;;;;5113879;28;20206;-85
2023/04/04 04:49:10;;;;;;;1.73;1.33;;;1.00;97.60;;;;;;5114154;28;20214;-86
2023/04/04 04:51:43;;;;;;;1.67;1.58;;;1.00;96.10;;;;;;5113815;28;20226;-85
2023/04/04 04:54:12;;;;;;;2.03;1.92;;;1.00;96.40;;;;;;5113906;28;20204;-85
2023/04/04 04:56:41;;;;;;;2.05;1.48;;;1.00;95.70;;;;;;5113066;28;20211;-85
2023/04/04 04:59:10;;;;;;;1.33;1.23;;;1.00;96.20;;;;;;5114071;28;20206;-85
2023/04/04 05:01:38;;;;;;;3.13;1.80;;;1.00;98.50;;;;;;5113622;28;20251;-85
2023/04/04 05:04:07;;;;;;;1.92;1.83;;;1.10;99.50;;;;;;5113373;28;20252;-85
2023/04/04 05:06:38;;;;;;;1.50;1.40;;;1.10;95.60;;;;;;5113553;28;20264;-85
2023/04/04 05:09:06;;;;;;;2.93;1.47;;;1.00;96.10;;;;;;5113042;28;20301;-84
2023/04/04 05:11:37;;;;;;;1.38;1.30;;;1.00;94.80;;;;;;5113337;28;20258;-83
2023/04/04 05:14:06;;;;;;;1.00;1.00;;;1.00;96.20;;;;;;5113591;28;20215;-84
2023/04/04 05:16:34;;;;;;;3.20;1.77;;;1.10;94.80;;;;;;5113729;28;20207;-84
2023/04/04 05:19:03;;;;;;;2.23;2.03;;;1.10;96.40;;;;;;5112888;28;20290;-83
2023/04/04 05:21:34;;;;;;;1.52;1.42;;;1.10;95.30;;;;;;5113088;28;20269;-83
2023/04/04 05:24:04;;;;;;;3.95;1.63;;;1.10;93.80;;;;;;5113257;28;20196;-83
2023/04/04 05:26:33;;;;;;;1.00;1.00;;;1.10;94.30;;;;;;5113044;28;20227;-84
2023/04/04 05:29:01;;;;;;;2.03;1.30;;;1.10;93.90;;;;;;5118370;28;20277;-83
2023/04/04 05:31:29;;;;;;;1.52;1.42;;;1.20;93.80;;;;;;5114930;28;20215;-83
2023/04/04 05:33:58;;;;;;;1.52;1.25;;;1.20;95.30;;;;;;5113208;28;20207;-83
2023/04/04 05:36:29;;;;;;;1.55;1.35;;;1.30;93.50;;;;;;5113690;28;20203;-82
2023/04/04 05:39:00;;;;;;;1.60;1.50;;;1.30;93.70;;;;;;5113101;28;20210;-85
2023/04/04 05:41:30;;;;;;;1.73;1.55;;;1.30;93.70;;;;;;5113072;28;20274;-85
2023/04/04 05:43:58;;;;;;;1.50;1.40;;;1.20;95.80;;;;;;5113244;28;20294;-85
2023/04/04 05:46:26;;;;;;;2.03;1.60;;;1.30;93.00;;;;;;5112705;28;20199;-85
2023/04/04 05:48:55;;;;;;;5.57;1.70;;;1.30;93.30;;;;;;5112633;28;20200;-85
2023/04/04 05:51:23;;;;;;;0.95;0.95;;;1.30;92.50;;;;;;5112797;28;20227;-85
2023/04/04 05:53:51;;;;;;;1.50;1.38;;;1.30;92.30;;;;;;5113145;28;20204;-85
2023/04/04 05:56:20;;;;;;;3.17;2.20;;;1.30;93.30;;;;;;5112606;28;20229;-86
2023/04/04 05:58:50;;;;;;;1.10;1.10;;;1.40;93.90;;;;;;5112559;28;20272;-85
2023/04/04 06:01:19;;;;;;;2.42;1.90;;;1.40;93.10;;;;;;5112683;28;20223;-85
2023/04/04 06:03:48;;;;;;;2.15;1.52;;;1.50;94.10;;;;;;5113067;28;20211;-85
2023/04/04 06:06:18;;;;;;;0.88;0.88;;;1.50;92.90;;;;;;5113002;28;20218;-85
2023/04/04 06:08:47;;;;;;;3.08;1.30;;;1.50;92.70;;;;;;5112187;28;20209;-83
2023/04/04 06:11:21;;;;;;;1.10;1.08;;;1.50;92.70;;;;;;5112728;28;20227;-83
2023/04/04 06:13:53;;;;;;;2.83;1.90;;;1.50;93.50;;;;;;5112420;28;20235;-84
2023/04/04 06:16:22;;;;;;;1.42;1.33;;;1.50;92.90;;;;;;5112649;28;20204;-84
2023/04/04 06:18:50;;;;;;;1.77;1.63;;;1.60;93.30;;;;;;5112412;28;20215;-83
2023/04/04 06:21:19;;;;;;;1.38;1.27;;;1.60;92.40;;;;;;5112648;28;20273;-83
2023/04/04 06:23:47;;;;;;;1.20;1.10;;;1.60;92.30;;;;;;5112629;28;20261;-82
2023/04/04 06:26:16;;;;;;;2.30;1.98;;;1.60;94.90;;;;;;5113290;28;20208;-84
2023/04/04 06:28:49;;;;;;;1.23;1.13;;;1.70;94.00;;;;;;5113908;28;20279;-84
2023/04/04 06:31:21;;;;;;;1.65;1.27;;;1.80;92.50;;;;;;5111051;28;20217;-82
2023/04/04 06:33:54;;;;;;;1.27;1.17;;;1.80;92.10;;;;;;5109000;28;20196;-84
2023/04/04 06:36:25;;;;;;;1.40;1.30;;;1.80;91.80;;;;;;5097571;28;20236;-82
2023/04/04 06:38:54;;;;;;;1.60;1.50;;;1.80;93.00;;;;;;5094487;28;20201;-82
2023/04/04 06:41:22;;;;;;;1.95;1.38;;;1.90;92.80;;;;;;5095573;28;20307;-82
2023/04/04 06:43:51;;;;;;;1.55;1.45;;;2.00;93.50;;;;;;5104135;28;20243;-82
2023/04/04 06:46:25;;;;;;;1.70;1.60;;;2.10;92.20;;;;;;5116705;28;20219;-84
2023/04/04 06:48:54;;;;;;;1.48;1.35;;;2.10;92.20;;;;;;5115115;28;20191;-84
2023/04/04 06:51:23;;;;;;;1.27;1.17;;;2.20;92.60;;;;;;5116348;28;20227;-84
2023/04/04 06:53:51;;;;;;;2.25;1.60;;;2.30;92.00;;;;;;5115423;28;20232;-84
2023/04/04 06:56:20;;;;;;;1.50;1.40;;;2.20;92.00;;;;;;5115699;28;20271;-84
2023/04/04 06:58:49;;;;;;;1.80;1.70;;;2.20;91.30;;;;;;5115010;28;20219;-84
2023/04/04 07:01:25;;;;;;;1.63;1.52;;;2.20;91.70;;;;;;5116010;28;20220;-85
2023/04/04 07:03:57;;;;;;;1.33;1.23;;;2.20;91.50;;;;;;5115883;28;20274;-84
2023/04/04 07:06:25;;;;;;;1.50;1.40;;;2.30;92.40;;;;;;5114908;28;20204;-84
2023/04/04 07:08:54;;;;;;;1.20;1.10;;;2.30;90.70;;;;;;5113828;28;20228;-81
2023/04/04 07:11:23;;;;;;;2.40;1.80;;;2.30;90.70;;;;;;5113153;28;20219;-81
2023/04/04 07:13:55;;;;;;;9.20;1.65;;;2.30;91.00;;;;;;5115225;28;20273;-83
2023/04/04 07:16:25;;;;;;;1.15;1.08;;;2.30;90.00;;;;;;5115419;28;20235;-84
2023/04/04 07:18:53;;;;;;;1.25;1.15;;;2.30;90.90;;;;;;5114242;28;20215;-82
2023/04/04 07:21:23;;;;;;;1.63;1.52;;;2.40;91.40;;;;;;5114848;28;20223;-81
2023/04/04 07:23:52;;;;;;;2.65;1.58;;;2.40;90.70;;;;;;5115448;28;20221;-83
2023/04/04 07:26:22;;;;;;;1.63;1.27;;;2.50;90.70;;;;;;5115047;28;20206;-84
2023/04/04 07:28:53;;;;;;;1.27;1.17;;;2.60;90.90;;;;;;5114728;28;20204;-82
2023/04/04 07:31:21;;;;;;;1.33;1.23;;;2.70;90.60;;;;;;5115084;28;20283;-85
2023/04/04 07:33:52;;;;;;;1.00;1.00;;;2.90;90.00;;;;;;5114864;28;20220;-85
2023/04/04 07:36:21;;;;;;;1.67;1.58;;;3.00;89.60;;;;;;5113315;28;20196;-85
2023/04/04 07:38:50;;;;;;;2.88;1.60;;;3.10;91.10;;;;;;5094292;28;20204;-82
2023/04/04 07:41:20;;;;;;;1.50;1.40;;;3.20;86.80;;;;;;5094653;28;20274;-85
2023/04/04 07:43:48;;;;;;;1.48;1.38;;;3.20;87.80;;;;;;5095197;28;20204;-82
2023/04/04 07:46:19;;;;;;;1.67;1.48;;;3.10;87.10;;;;;;5109872;28;20223;-82
2023/04/04 07:48:49;;;;;;;1.98;1.65;;;3.20;87.50;;;;;;5114903;28;20233;-82
2023/04/04 07:51:26;;;;;;;1.27;1.20;;;3.30;87.00;;;;;;5114560;28;20273;-82
2023/04/04 07:53:55;;;;;;;1.88;1.48;;;3.40;88.20;;;;;;5114797;28;20231;-82
2023/04/04 07:56:27;;;;;;;4.03;1.88;;;3.50;86.30;;;;;;5114091;28;20232;-84
2023/04/04 07:58:56;;;;;;;1.95;1.45;;;3.60;85.80;;;;;;5114729;28;20299;-84
2023/04/04 08:01:25;;;;;;;1.98;1.60;;;3.70;85.30;;;;;;5114719;28;20224;-83
2023/04/04 08:03:54;;;;;;;1.42;1.33;;;3.70;87.70;;;;;;5114662;28;20210;-83
2023/04/04 08:06:24;;;;;;;1.70;1.60;;;3.80;88.80;;;;;;5114741;28;20246;-85
2023/04/04 08:08:53;;;;;;;2.17;1.75;;;4.00;85.90;;;;;;5113869;28;20258;-84
2023/04/04 08:11:21;;;;;;;1.45;1.35;;;4.20;85.30;;;;;;5114319;28;20255;-83
2023/04/04 08:13:50;;;;;;;1.52;1.40;;;4.30;83.50;;;;;;5113177;28;20255;-83
2023/04/04 08:16:18;;;;;;;1.80;1.63;;;4.60;83.50;;;;;;5114401;28;20291;-84
2023/04/04 08:18:47;;;;;;;1.55;1.45;;;4.80;82.50;;;;;;5114078;28;20208;-83
2023/04/04 08:21:16;;;;;;;1.45;1.35;;;5.00;81.90;;;;;;5114305;28;20266;-83
2023/04/04 08:23:46;;;;;;;9.75;1.88;;;5.30;80.50;;;;;;5114258;28;20300;-84
2023/04/04 08:26:15;;;;;;;1.67;1.58;;;5.60;78.00;;;;;;5113940;28;20203;-83
2023/04/04 08:28:44;;;;;;;1.65;1.55;;;5.80;77.00;;;;;;5113427;28;20261;-83
2023/04/04 08:31:12;;;;;;;1.58;1.48;;;5.60;77.90;;;;;;5113886;28;20224;-85
2023/04/04 08:33:41;;;;;;;1.50;1.40;;;5.30;78.20;;;;;;5113783;28;20226;-85
2023/04/04 08:36:15;;;;;;;3.45;1.77;;;5.10;77.60;;;;;;5095041;28;20211;-84
2023/04/04 08:38:44;;;;;;;2.60;2.00;;;5.20;77.90;;;;;;5092976;28;20200;-85
2023/04/04 08:41:15;;;;;;;1.50;1.40;;;5.60;75.80;;;;;;5093288;28;20228;-84
2023/04/04 08:43:53;;;;;;;1.80;1.70;;;6.00;76.90;;;;;;5093731;28;20281;-85
2023/04/04 08:46:23;;;;;;;2.03;1.60;;;6.60;74.00;;;;;;5093750;28;20306;-85
2023/04/04 08:48:53;;;;;;;1.70;1.60;;;6.90;74.70;;;;;;5091838;28;20206;-85
2023/04/04 08:51:25;;;;;;;2.00;1.70;;;6.90;73.50;;;;;;5093519;28;20247;-84
2023/04/04 08:53:55;;;;;;;1.67;1.58;;;6.70;72.10;;;;;;5093639;28;20235;-84
2023/04/04 08:56:27;;;;;;;2.97;1.63;;;6.20;71.80;;;;;;5093417;28;20203;-84
2023/04/04 08:58:55;;;;;;;3.22;2.42;;;5.80;74.60;;;;;;5097772;28;20255;-85
2023/04/04 09:01:28;;;;;;;1.90;1.80;;;5.90;73.70;;;;;;5113221;28;20219;-82
2023/04/04 09:03:57;;;;;;;1.60;1.50;;;6.30;73.10;;;;;;5113315;28;20253;-86
2023/04/04 09:06:26;;;;;;;1.65;1.30;;;6.40;73.10;;;;;;5113938;28;20363;-85
2023/04/04 09:08:59;;;;;;;1.50;1.40;;;6.60;72.50;;;;;;5112926;28;20284;-85
2023/04/04 09:11:31;;;;;;;1.60;1.50;;;7.30;71.60;;;;;;5113808;28;20243;-85
2023/04/04 09:14:03;;;;;;;4.30;2.13;;;8.20;70.10;;;;;;5111734;28;20244;-88
2023/04/04 09:16:32;;;;;;;2.00;1.70;;;8.80;66.80;;;;;;5113709;28;20252;-89
2023/04/04 09:19:00;;;;;;;1.45;1.30;;;8.90;65.80;;;;;;5108345;28;20218;-86
2023/04/04 09:21:33;;;;;;;2.63;1.40;;;8.80;67.20;;;;;;5094442;28;20245;-87
2023/04/04 09:24:03;;;;;;;1.45;1.40;;;8.80;63.70;;;;;;5092740;28;20219;-87
2023/04/04 09:26:47;;;;;;;1.92;1.80;;;8.30;63.00;;;;;;5107015;28;20225;-85
2023/04/04 09:29:20;;;;;;;1.67;1.58;;;8.00;64.50;;;;;;5108071;28;20205;-88
2023/04/04 09:31:49;;;;;;;2.20;2.03;;;7.80;65.80;;;;;;5113254;28;20265;-87
2023/04/04 09:34:20;;;;;;;2.88;1.83;;;7.70;66.90;;;;;;5110985;28;20234;-87
2023/04/04 09:36:52;;;;;;;2.70;1.38;;;7.70;65.90;;;;;;5092513;28;20219;-85
2023/04/04 09:39:22;;;;;;;4.40;2.10;;;8.00;64.40;;;;;;5104122;28;20222;-85
2023/04/04 09:41:52;;;;;;;1.92;1.83;;;8.50;62.90;;;;;;5113159;28;20236;-85
2023/04/04 09:44:24;;;;;;;1.77;1.60;;;8.50;64.10;;;;;;5112866;28;20202;-84
2023/04/04 09:46:53;;;;;;;1.42;1.35;;;8.50;63.20;;;;;;5112369;28;20239;-84
2023/04/04 09:49:22;;;;;;;1.73;1.63;;;8.40;64.80;;;;;;5112550;28;20195;-84
2023/04/04 09:51:55;;;;;;;1.77;1.67;;;9.00;65.20;;;;;;5112878;28;20228;-85
2023/04/04 09:54:24;;;;;;;1.60;1.50;;;9.70;61.50;;;;;;5113049;28;20355;-85
2023/04/04 09:56:58;;;;;;;1.85;1.75;;;9.50;60.40;;;;;;5112346;28;20200;-85
2023/04/04 09:59:31;;;;;;;2.45;1.98;;;9.10;62.80;;;;;;5114194;28;20200;-85
2023/04/04 10:02:02;;;;;;;3.08;2.03;;;9.10;60.90;;;;;;5116858;28;20230;-86
2023/04/04 10:04:32;;;;;;;1.40;1.30;;;9.60;62.60;;;;;;5116948;28;20199;-87
2023/04/04 10:07:01;;;;;;;1.88;1.42;;;9.90;60.70;;;;;;5116756;28;20218;-85
2023/04/04 10:09:29;;;;;;;1.42;1.33;;;10.20;59.60;;;;;;5116830;28;20240;-85
2023/04/04 10:12:10;;;;;;;2.47;1.85;;;10.50;60.00;;;;;;5116258;28;20227;-87
2023/04/04 10:14:38;;;;;;;2.20;1.73;;;10.80;55.80;;;;;;5116511;28;20227;-86
2023/04/04 10:17:09;;;;;;;1.70;1.60;;;10.60;55.50;;;;;;5116263;28;20200;-85
2023/04/04 10:19:38;;;;;;;1.58;1.48;;;9.80;56.50;;;;;;5116599;28;20230;-86
2023/04/04 10:22:09;;;;;;;1.35;1.27;;;9.00;57.30;;;;;;5116920;28;20314;-86
2023/04/04 10:24:37;;;;;;;1.52;1.42;;;9.00;58.80;;;;;;5116149;28;20199;-85
2023/04/04 10:27:06;;;;;;;1.60;1.50;;;9.70;60.60;;;;;;5116161;28;20219;-85
2023/04/04 10:29:36;;;;;;;1.90;1.80;;;10.10;58.60;;;;;;5116316;28;20207;-86
2023/04/04 10:32:12;;;;;;;2.47;1.52;;;10.10;55.70;;;;;;5116105;28;20223;-87
2023/04/04 10:34:47;;;;;;;3.80;2.10;;;10.70;56.50;;;;;;5110648;28;20212;-85
2023/04/04 10:37:20;;;;;;;1.80;1.70;;;11.10;56.60;;;;;;5095231;28;20261;-83
2023/04/04 10:39:55;;;;;;;2.42;2.22;;;11.30;55.80;;;;;;5096235;28;20299;-84
2023/04/04 10:42:26;;;;;;;2.47;1.95;;;11.30;56.30;;;;;;5103990;28;20219;-84
2023/04/04 10:44:57;;;;;;;1.75;1.35;;;10.60;55.60;;;;;;5116250;28;20230;-87
2023/04/04 10:47:42;;;;;;;1.83;1.70;;;9.90;58.70;;;;;;5115110;28;20195;-87
2023/04/04 10:50:12;;;;;;;1.77;1.67;;;10.00;58.80;;;;;;5116088;28;20204;-83
2023/04/04 10:52:44;;;;;;;10.32;2.28;;;10.20;56.40;;;;;;5115637;28;20212;-85
2023/04/04 10:55:14;;;;;;;2.50;2.30;;;9.90;56.00;;;;;;5115993;28;20223;-85
2023/04/04 10:57:46;;;;;;;1.92;1.83;;;10.30;55.80;;;;;;5115277;28;20295;-84
2023/04/04 11:00:18;;;;;;;1.88;1.77;;;10.70;54.60;;;;;;5115793;28;20207;-84
2023/04/04 11:02:50;;;;;;;1.85;1.75;;;10.80;54.70;;;;;;5115596;28;20208;-84
2023/04/04 11:05:23;;;;;;;3.55;2.05;;;11.00;54.90;;;;;;5115674;28;20200;-85
2023/04/04 11:07:59;;;;;;;1.58;1.48;;;11.10;55.00;;;;;;5114793;28;20221;-85
2023/04/04 11:10:37;;;;;;;4.03;2.13;;;11.70;55.40;;;;;;5115447;28;20267;-84
2023/04/04 11:13:11;;;;;;;1.73;1.63;;;11.80;54.70;;;;;;5110570;28;20215;-85
2023/04/04 11:15:55;;;;;;;3.30;2.33;;;11.80;54.50;;;;;;5114480;28;20230;-84
2023/04/04 11:18:44;;;;;;;1.80;1.70;;;11.70;52.00;;;;;;5114151;28;20207;-85
2023/04/04 11:21:15;;;;;;;3.17;1.90;;;11.80;54.00;;;;;;5115573;28;20233;-85
2023/04/04 11:24:17;;;;;;;1.60;1.50;;;11.80;52.90;;;;;;5115551;28;20202;-84
2023/04/04 11:26:46;;;;;;;2.22;1.98;;;12.20;51.70;;;;;;5115062;28;20195;-77
2023/04/04 11:29:25;;;;;;;3.17;2.35;;;11.60;58.60;;;;;;5114877;28;20263;-84
2023/04/04 11:31:55;;;;;;;2.05;1.48;;;11.40;54.80;;;;;;5115199;28;20274;-84
2023/04/04 11:34:31;;;;;;;2.00;1.80;;;11.30;53.10;;;;;;5114898;28;20200;-84
2023/04/04 11:37:16;;;;;;;6.32;2.53;;;11.20;54.10;;;;;;5111126;28;20211;-85
2023/04/04 11:39:55;;;;;;;1.60;1.50;;;11.10;52.60;;;;;;5115148;28;20207;-85
2023/04/04 11:42:23;;;;;;;2.22;2.03;;;11.10;55.50;;;;;;5115170;28;20258;-84
2023/04/04 11:45:06;;;;;;;2.92;1.80;;;11.50;55.50;;;;;;5112174;28;20212;-85
2023/04/04 11:47:38;;;;;;;1.88;1.77;;;11.70;51.70;;;;;;5114471;28;20195;-85
2023/04/04 11:50:09;;;;;;;1.65;1.55;;;12.00;54.00;;;;;;5115115;28;20200;-85
2023/04/04 11:52:41;;;;;;;2.13;2.03;;;12.10;49.00;;;;;;5114958;28;20227;-85
2023/04/04 11:55:16;;;;;;;1.60;1.50;;;11.80;49.50;;;;;;5114720;28;20272;-86
2023/04/04 11:57:46;;;;;;;2.30;1.40;;;11.90;51.60;;;;;;5114201;28;20263;-85
2023/04/04 12:00:29;;;;;;;2.95;1.40;;;11.80;50.60;;;;;;5114583;28;20244;-85
2023/04/04 12:03:00;;;;;;;2.03;1.83;;;11.50;51.00;;;;;;5105826;28;20200;-85
2023/04/04 12:05:32;;;;;;;2.25;2.05;;;11.90;52.80;;;;;;5095607;28;20208;-85
2023/04/04 12:08:01;;;;;;;2.78;2.05;;;12.70;51.60;;;;;;5093753;28;20286;-85
2023/04/04 12:10:32;;;;;;;1.60;1.50;;;12.40;50.50;;;;;;5094001;28;20212;-85
2023/04/04 12:13:01;;;;;;;1.83;1.63;;;12.10;49.40;;;;;;5094103;28;20277;-85
2023/04/04 12:15:32;;;;;;;5.93;2.13;;;11.90;50.20;;;;;;5094335;28;20249;-85
2023/04/04 12:18:07;;;;;;;16.65;2.10;;;12.00;51.30;;;;;;5102877;28;20242;-85
2023/04/04 12:20:39;;;;;;;1.85;1.75;;;11.90;52.00;;;;;;5109550;28;20203;-85
2023/04/04 12:23:09;;;;;;;2.38;1.90;;;11.90;51.50;;;;;;5106226;28;20291;-85
2023/04/04 12:25:38;;;;;;;2.25;2.05;;;12.00;50.10;;;;;;5093838;28;20212;-85
2023/04/04 12:28:10;;;;;;;1.80;1.70;;;12.00;49.80;;;;;;5093098;28;20197;-84
2023/04/04 12:30:38;;;;;;;1.90;1.80;;;12.10;49.70;;;;;;5093623;28;20212;-84
2023/04/04 12:33:08;;;;;;;2.67;1.75;;;11.90;49.00;;;;;;5093742;28;20288;-85
2023/04/04 12:35:41;;;;;;;2.55;1.80;;;12.10;52.20;;;;;;5094748;28;20269;-86
2023/04/04 12:38:17;;;;;;;2.28;1.83;;;12.30;49.00;;;;;;5100667;28;20248;-84
2023/04/04 12:40:46;;;;;;;2.13;1.92;;;12.00;48.20;;;;;;5094109;28;20220;-84
2023/04/04 12:43:19;;;;;;;2.70;2.28;;;11.50;49.10;;;;;;5093890;28;20235;-84
2023/04/04 12:45:50;;;;;;;1.75;1.65;;;11.30;50.10;;;;;;5109709;28;20196;-84
2023/04/04 12:48:26;;;;;;;2.38;2.15;;;11.70;50.90;;;;;;5113134;28;20200;-83
2023/04/04 12:50:56;;;;;;;1.85;1.70;;;12.00;47.90;;;;;;5113618;28;20306;-81
2023/04/04 12:53:29;;;;;;;2.20;2.00;;;11.80;47.00;;;;;;5113572;28;20231;-81
2023/04/04 12:56:01;;;;;;;2.17;1.95;;;11.50;48.10;;;;;;5112891;28;20215;-81
2023/04/04 12:58:29;;;;;;;1.73;1.63;;;11.50;49.60;;;;;;5113087;28;20200;-82
2023/04/04 13:01:03;;;;;;;3.25;1.65;;;12.10;48.40;;;;;;5106045;28;20295;-82
2023/04/04 13:03:34;;;;;;;2.20;2.00;;;12.00;48.10;;;;;;5100987;28;20199;-83
2023/04/04 13:06:02;;;;;;;3.55;1.77;;;11.90;49.00;;;;;;5112312;28;20312;-83
2023/04/04 13:08:31;;;;;;;1.77;1.67;;;12.10;48.70;;;;;;5112963;28;20295;-83
2023/04/04 13:11:03;;;;;;;2.90;2.17;;;11.90;47.10;;;;;;5113156;28;20326;-83
2023/04/04 13:13:37;;;;;;;1.85;1.73;;;11.90;48.10;;;;;;5113152;28;20283;-83